Latest Coastal Weather Observations for Cape Bruny AWS

IDT60701

Issued at 11:02 am EDT Thursday 21 November 2019 (issued every 10 minutes, with the page automatically refreshed every 10 minutes)

About coastal observations | Map of coastal stations | Coastal observations for TAS | Marine services | Other Formats
Station Details ID: 094198 Name: CAPE BRUNY (CAPE BRUNY) Lat: -43.49 Lon: 147.14 Height: 59.7 m
Data from the previous 72 hours. | See also: Recent months at Cape Bruny AWS
Date/Time
EDT
Wind Sea
Height
m
Swell Vis
km
Cloud Weather Temp
°C
Press
hPa
Rain since
9am
mm
Dir  Spd
kts
Gust
kts
Height
m
Period
s
Dir
21/11:00am SSE 10 14 - - - - - - - 20.3 996.0 0.0
21/10:30am ESE 8 13 - - - - - - - 19.9 995.5 0.0
21/10:00am S 7 12 - - - - - - - 19.8 996.2 0.0
21/09:30am SSW 6 10 - - - - - - - 17.7 995.9 0.0
21/09:00am WSW 8 13 - - - - - - - 18.3 995.9 0.6
21/08:30am WSW 12 16 - - - - - - - 17.7 995.6 0.6
21/08:00am W 13 18 - - - - - - - 20.6 995.6 0.6
21/07:30am N 13 17 - - - - - - - 22.7 994.8 0.6
21/07:00am N 14 21 - - - - - - - 22.4 994.4 0.6
21/06:30am N 15 21 - - - - - - - 22.1 994.4 0.6
21/06:00am N 14 22 - - - - - - - 22.0 994.5 0.6
21/05:30am N 13 21 - - - - - - - 21.6 994.9 0.6
21/05:00am N 12 18 - - - - - - - 20.8 995.3 0.6
21/04:30am N 13 19 - - - - - - - 20.5 996.1 0.6
21/04:00am N 15 21 - - - - - - - 19.6 996.9 0.6
21/03:30am N 12 20 - - - - - - - 18.9 997.3 0.6
21/03:00am N 11 17 - - - - - - - 17.8 997.9 0.6
21/02:30am NNE 10 15 - - - - - - - 17.5 998.8 0.6
21/02:00am NNE 12 20 - - - - - - - 17.6 999.5 0.6
21/01:30am NE 12 16 - - - - - - - 16.9 999.8 0.6
21/01:00am NNE 11 20 - - - - - - - 16.7 1000.8 0.6
21/12:30am NNE 13 19 - - - - - - - 16.0 1001.5 0.6
21/12:00am NNE 12 18 - - - - - - - 15.6 1002.2 0.6
 
Date/Time
EDT
Wind Sea
Height
m
Swell Vis
km
Cloud Weather Temp
°C
Press
hPa
Rain since
9am
mm
Dir  Spd
kts
Gust
kts
Height
m
Period
s
Dir
20/11:30pm N 13 20 - - - - - - - 15.6 1002.9 0.6
20/11:00pm N 14 20 - - - - - - - 16.2 1003.6 0.6
20/10:30pm NNE 16 22 - - - - - - - 15.8 1003.8 0.6
20/10:00pm N 13 17 - - - - - - - 15.2 1005.1 0.6
20/09:30pm N 10 14 - - - - - - - 14.9 1005.4 0.6
20/09:00pm NNE 10 13 - - - - - - - 14.9 1005.7 0.6
20/08:30pm NNE 8 9 - - - - - - - 14.2 1006.4 0.6
20/08:00pm NNE 9 11 - - - - - - - 14.3 1007.1 0.6
20/07:30pm N 8 11 - - - - - - - 14.1 1007.6 0.6
20/07:00pm NNW 7 9 - - - - - - - 13.7 1007.6 0.6
20/06:30pm WNW 9 10 - - - - - - - 13.4 1007.5 0.6
20/06:00pm NE 3 11 - - - - - - - 14.4 1007.6 0.6
20/05:30pm ESE 5 8 - - - - - - - 14.0 1006.7 0.6
20/05:28pm ESE 5 7 - - - - - - - 13.8 1007.2 0.6
20/05:00pm ESE 1 4 - - - - - - - 13.4 1009.3 0.6
20/04:30pm SSW 4 6 - - - - - - - 13.3 1009.5 0.4
20/04:00pm W 11 15 - - - - - - - 13.7 1010.9 0.4
20/03:30pm CALM 0 0 - - - - - - - 15.5 1010.3 0.2
20/03:00pm SE 5 6 - - - - - - - 16.7 1010.3 0.0
20/02:30pm SE 6 7 - - - - - - - 17.5 1010.3 0.0
20/02:00pm SSW 7 9 - - - - - - - 19.0 1010.4 0.0
20/01:30pm SSE 7 10 - - - - - - - 18.8 1010.9 0.0
20/01:00pm NE 7 10 - - - - - - - 18.3 1011.3 0.0
20/12:30pm NNE 8 12 - - - - - - - 18.8 1011.7 0.0
20/12:00pm NE 10 15 - - - - - - - 19.3 1012.2 0.0
20/11:30am NNE 9 12 - - - - - - - 18.0 1012.4 0.0
20/11:00am NNE 8 12 - - - - - - - 17.2 1012.9 0.0
20/10:30am N 7 11 - - - - - - - 17.0 1013.2 0.0
20/10:00am N 8 14 - - - - - - - 14.4 1013.0 0.0
20/09:30am NNE 11 17 - - - - - - - 14.2 1013.1 0.0
20/09:00am NNE 11 16 - - - - - - - 13.7 1013.6 0.0
20/08:30am NNE 9 13 - - - - - - - 13.5 1014.2 0.0
20/08:00am NNE 8 12 - - - - - - - 12.2 1014.0 0.0
20/07:30am NE 6 9 - - - - - - - 11.1 1014.2 0.0
20/07:00am NNW 3 5 - - - - - - - 9.3 1014.6 0.0
20/06:30am NNW 3 4 - - - - - - - 8.1 1014.8 0.0
20/06:00am N 5 7 - - - - - - - 7.5 1014.3 0.0
20/05:30am N 5 6 - - - - - - - 7.2 1014.3 0.0
20/05:00am N 4 5 - - - - - - - 6.8 1014.4 0.0
20/04:30am NNE 5 6 - - - - - - - 7.2 1014.5 0.0
20/04:00am N 5 6 - - - - - - - 7.7 1014.7 0.0
20/03:30am NNW 7 7 - - - - - - - 7.7 1015.1 0.0
20/03:00am N 7 9 - - - - - - - 6.2 1015.0 0.0
20/02:30am N 6 6 - - - - - - - 6.3 1015.1 0.0
20/02:00am N 8 9 - - - - - - - 6.8 1015.6 0.0
20/01:30am NNW 6 7 - - - - - - - 7.1 1015.7 0.0
20/01:00am NW 5 7 - - - - - - - 7.7 1015.8 0.0
20/12:30am WSW 8 10 - - - - - - - 8.8 1016.3 0.0
20/12:00am SW 9 12 - - - - - - - 8.6 1016.0 0.0
 
Date/Time
EDT
Wind Sea
Height
m
Swell Vis
km
Cloud Weather Temp
°C
Press
hPa
Rain since
9am
mm
Dir  Spd
kts
Gust
kts
Height
m
Period
s
Dir
19/11:30pm WSW 11 15 - - - - - - - 9.1 1016.1 0.0
19/11:00pm WSW 11 16 - - - - - - - 9.0 1016.2 0.0
19/10:30pm SW 13 16 - - - - - - - 9.2 1015.9 0.0
19/10:00pm SW 10 13 - - - - - - - 9.2 1016.0 0.0
19/09:30pm SW 10 15 - - - - - - - 9.2 1015.9 0.0
19/09:00pm SW 10 15 - - - - - - - 9.3 1015.6 0.0
19/08:30pm SW 12 16 - - - - - - - 9.5 1015.3 0.0
19/08:00pm WSW 12 17 - - - - - - - 10.2 1015.0 0.0
19/07:30pm WSW 16 21 - - - - - - - 10.8 1014.7 0.0
19/07:00pm WSW 17 23 - - - - - - - 11.5 1014.5 0.0
19/06:30pm WSW 17 22 - - - - - - - 12.3 1014.3 0.0
19/06:00pm WSW 16 22 - - - - - - - 12.6 1014.0 0.0
19/05:30pm WSW 17 22 - - - - - - - 13.1 1013.7 0.0
19/05:00pm SW 15 22 - - - - - - - 13.8 1013.3 0.0
19/04:30pm SW 15 22 - - - - - - - 13.1 1012.9 0.0
19/04:00pm WSW 16 22 - - - - - - - 14.0 1012.6 0.0
19/03:31pm WSW 20 30 - - - - - - - 13.5 1012.4 0.0
19/03:30pm WSW 20 26 - - - - - - - 13.5 1012.4 0.0
19/03:00pm WSW 20 27 - - - - - - - 13.5 1012.4 0.0
19/02:30pm WSW 24 32 - - - - - - - 13.4 1012.0 0.0
19/02:00pm WSW 21 27 - - - - - - - 13.9 1011.9 0.0
19/01:30pm WSW 19 25 - - - - - - - 13.0 1011.6 0.0
19/01:00pm WSW 17 24 - - - - - - - 12.0 1011.3 0.0
19/12:30pm WSW 22 28 - - - - - - - 13.3 1010.9 0.0
19/12:00pm WSW 23 27 - - - - - - - 12.9 1010.9 0.0
19/11:30am WSW 18 23 - - - - - - - 10.6 1010.9 0.0
19/11:00am WSW 20 31 - - - - - - - 11.5 1010.4 0.0
19/10:51am WSW 17 27 - - - - - - - 11.7 1010.3 0.0
19/10:30am WSW 22 28 - - - - - - - 12.4 1009.9 0.0
19/10:00am WSW 23 27 - - - - - - - 13.1 1009.6 0.0
19/09:30am WSW 20 25 - - - - - - - 12.6 1009.5 0.0
19/09:00am W 17 22 - - - - - - - 12.9 1009.6 0.0
19/08:30am WSW 20 26 - - - - - - - 11.7 1009.2 0.0
19/08:03am WSW 23 33 - - - - - - - 10.9 1008.8 0.0
19/08:00am WSW 25 33 - - - - - - - 10.9 1008.7 0.0
19/07:30am WSW 28 34 - - - - - - - 10.3 1008.0 0.0
19/07:00am WSW 23 33 - - - - - - - 10.7 1007.6 0.0
19/06:30am WSW 18 23 - - - - - - - 10.1 1007.4 0.0
19/06:00am WSW 19 25 - - - - - - - 9.8 1007.0 0.0
19/05:30am WSW 21 26 - - - - - - - 10.5 1006.6 0.0
19/05:00am W 19 27 - - - - - - - 10.5 1006.1 0.0
19/04:52am W 19 29 - - - - - - - 10.8 1006.1 0.0
19/04:30am WSW 22 29 - - - - - - - 10.5 1005.8 0.0
19/04:00am WSW 19 24 - - - - - - - 10.4 1005.8 0.0
19/03:30am WSW 19 25 - - - - - - - 10.2 1005.6 0.0
19/03:00am WSW 17 23 - - - - - - - 10.4 1005.5 0.0
19/02:30am WSW 16 23 - - - - - - - 10.2 1005.3 0.0
19/02:00am WSW 18 25 - - - - - - - 10.5 1005.3 0.0
19/01:30am WSW 17 22 - - - - - - - 10.3 1005.2 0.0
19/01:00am WSW 16 22 - - - - - - - 10.3 1005.1 0.0
19/12:30am WSW 11 15 - - - - - - - 10.1 1004.8 0.0
19/12:00am WSW 15 18 - - - - - - - 10.4 1004.8 0.0
 
Date/Time
EDT
Wind Sea
Height
m
Swell Vis
km
Cloud Weather Temp
°C
Press
hPa
Rain since
9am
mm
Dir  Spd
kts
Gust
kts
Height
m
Period
s
Dir
18/11:30pm WSW 12 16 - - - - - - - 10.5 1005.1 0.0
18/11:00pm W 15 22 - - - - - - - 10.4 1004.8 0.0
18/10:56pm W 18 28 - - - - - - - 10.4 1004.8 0.0
18/10:30pm WSW 24 29 - - - - - - - 10.9 1004.7 0.0
18/10:00pm W 20 26 - - - - - - - 11.5 1004.0 0.0
18/09:30pm WSW 25 32 - - - - - - - 11.2 1003.5 0.0
18/09:00pm WSW 31 37 - - - - - - - 11.1 1002.8 0.0
18/08:34pm WSW 30 42 - - - - - - - 11.1 1002.5 0.0
18/08:30pm WSW 30 38 - - - - - - - 11.0 1002.5 0.0
18/08:00pm WSW 31 41 - - - - - - - 11.6 1002.2 0.0
18/07:32pm WSW 34 46 - - - - - - - 11.9 1001.7 0.0
18/07:30pm WSW 33 46 - - - - - - - 12.1 1001.6 0.0
18/07:29pm WSW 32 46 - - - - - - - 12.2 1001.6 0.0
18/07:24pm WSW 27 37 - - - - - - - 13.0 1001.8 0.0
18/07:00pm W 21 29 - - - - - - - 14.7 1001.4 0.0
18/06:51pm W 17 29 - - - - - - - 15.0 1001.2 0.0
18/06:30pm W 20 27 - - - - - - - 15.1 1000.8 0.0
18/06:00pm W 22 30 - - - - - - - 15.6 1000.6 0.0
18/05:30pm W 22 27 - - - - - - - 16.1 1000.5 0.0
18/05:00pm WNW 25 33 - - - - - - - 16.1 1000.4 0.0
18/04:30pm WNW 25 35 - - - - - - - 16.4 1000.4 0.0
18/04:00pm WNW 25 32 - - - - - - - 16.9 1000.3 0.0
18/03:30pm WNW 29 35 - - - - - - - 16.5 1000.4 0.0
18/03:03pm WNW 30 40 - - - - - - - 16.6 1000.3 0.0
18/03:00pm WNW 30 39 - - - - - - - 16.7 1000.3 0.0
18/02:30pm WNW 32 42 - - - - - - - 16.3 1000.3 0.0
18/02:00pm WNW 32 46 - - - - - - - 16.5 1000.3 0.0
18/01:35pm WNW 33 46 - - - - - - - 16.1 1000.3 0.0
18/01:30pm WNW 33 42 - - - - - - - 16.4 1000.4 0.0
18/01:18pm WNW 33 46 - - - - - - - 16.3 1000.3 0.0
18/01:00pm WNW 33 42 - - - - - - - 16.1 1000.5 0.0
18/12:30pm WNW 35 48 - - - - - - - 15.8 1000.6 0.0
18/12:00pm WNW 37 49 - - - - - - - 15.6 1000.8 0.0
18/11:49am WNW 37 56 - - - - - - - 15.6 1001.0 0.0
18/11:30am WNW 35 45 - - - - - - - 15.5 1001.2 0.0

Other formats

Comma delimited format used in spreadsheet applications
http://www.bom.gov.au/fwo/IDT60701/IDT60701.95967.axf

JavaScript Object Notation format (JSON) in row-major order
http://www.bom.gov.au/fwo/IDT60701/IDT60701.95967.json

Data quality

Most of these data are generated automatically and are frequently updated. Quality checks on data are not normally performed. It is possible for incorrect values to appear. Refer to information at About Latest Weather Observations and please check the disclaimer before using these data.